Check out our new BloomSky Weather System.

Active alerts


No alerts


Thunder radar  blitzortung!


Rain radar more information rain snow radar


Visit our other weather sites:

Template documentation
and downloads

And another site



Weather Underground History page Text

Daily Summary for April 19, 2017 Units:  Metric    English   Both
« Previous Day
Next Day »
Daily Weekly Monthly Yearly Custom
  High: Low: Average:
Temperature: 28.6 °C 18.7 °C 23.3 °C
Dew Point: 23 °C 18.4 °C 20.7 °C
Humidity: 100 % 60 % 86 %
Wind Speed: 29 km/h 0 km/h 5.1 km/h
Wind Gust: 30.6 km/h - -
Wind:- - SE
Pressure: 1017.8 hPa 1015.5 hPa -
Precipitation: 10.67 mm    
Historical Graphs
 
 
Tabular Data for April 19, 2017
Time Temperature Dew Point Pressure Wind Wind Speed Wind Gust Humidity Rainfall Rate (Hourly)
00:02 19.9 °C 19.2 °C 1016.5 hPa Calm     96 % 0 mm
00:07 19.9 °C 19.2 °C 1016.5 hPa Calm   1.6 km/h 96 % 0 mm
00:12 19.9 °C 19.2 °C 1016.5 hPa Calm   1.6 km/h 96 % 0 mm
00:17 19.9 °C 19.4 °C 1016.5 hPa Calm   1.6 km/h 97 % 0 mm
00:22 19.9 °C 19.4 °C 1016.5 hPa Calm   1.6 km/h 97 % 0 mm
00:27 19.9 °C 19.4 °C 1016.5 hPa Calm   1.6 km/h 97 % 0 mm
00:32 19.9 °C 19.4 °C 1016.5 hPa Calm   1.6 km/h 97 % 0 mm
00:37 19.8 °C 19.3 °C 1016.5 hPa Calm   1.6 km/h 97 % 0 mm
00:42 19.7 °C 19.2 °C 1016.5 hPa Calm     97 % 0 mm
00:47 19.7 °C 19.2 °C 1016.5 hPa Calm     97 % 0 mm
00:52 19.7 °C 19.2 °C 1016.8 hPa Calm   1.6 km/h 97 % 0 mm
00:57 19.7 °C 19.2 °C 1016.8 hPa Calm   1.6 km/h 97 % 0 mm
01:02 19.7 °C 19.2 °C 1016.8 hPa Calm   1.6 km/h 97 % 0 mm
01:07 19.7 °C 19.2 °C 1016.8 hPa Calm   1.6 km/h 97 % 0 mm
01:12 19.7 °C 19.2 °C 1016.8 hPa Calm   1.6 km/h 97 % 0 mm
01:17 19.7 °C 19.2 °C 1016.8 hPa Calm   1.6 km/h 97 % 0 mm
01:22 19.6 °C 19.1 °C 1016.8 hPa Calm   1.6 km/h 97 % 0 mm
01:27 19.5 °C 19 °C 1016.8 hPa Calm     97 % 0 mm
01:32 19.6 °C 19.3 °C 1016.8 hPa Calm   1.6 km/h 98 % 0 mm
01:37 19.5 °C 19 °C 1016.8 hPa Calm   1.6 km/h 97 % 0 mm
01:42 19.5 °C 19.2 °C 1016.8 hPa Calm   1.6 km/h 98 % 0 mm
01:47 19.5 °C 19.2 °C 1016.5 hPa Calm   1.6 km/h 98 % 0 mm
01:52 19.4 °C 18.9 °C 1016.5 hPa Calm     97 % 0 mm
01:57 19.3 °C 18.8 °C 1016.5 hPa Calm     97 % 0 mm
02:03 19.2 °C 18.9 °C 1016.5 hPa Calm     98 % 0 mm
02:08 19.1 °C 18.8 °C 1016.5 hPa Calm     98 % 0 mm
02:13 19.1 °C 18.8 °C 1016.5 hPa Calm     98 % 0 mm
02:18 19.2 °C 18.9 °C 1016.1 hPa Calm     98 % 0 mm
02:23 19.3 °C 19 °C 1016.1 hPa Calm     98 % 0 mm
02:28 19.3 °C 19 °C 1016.1 hPa Calm     98 % 0 mm
02:33 19.2 °C 18.9 °C 1016.1 hPa Calm     98 % 0 mm
02:38 19.2 °C 18.9 °C 1016.1 hPa Calm     98 % 0 mm
02:43 19.2 °C 18.9 °C 1016.1 hPa Calm     98 % 0 mm
02:48 19.2 °C 18.9 °C 1016.1 hPa Calm     98 % 0 mm
02:53 19.1 °C 18.8 °C 1016.1 hPa Calm     98 % 0 mm
02:58 19.1 °C 18.8 °C 1016.1 hPa Calm   1.6 km/h 98 % 0 mm
03:03 19 °C 18.7 °C 1016.1 hPa Calm   1.6 km/h 98 % 0 mm
03:08 19 °C 18.7 °C 1016.1 hPa Calm   1.6 km/h 98 % 0 mm
03:13 18.9 °C 18.6 °C 1016.1 hPa Calm     98 % 0 mm
03:18 18.9 °C 18.6 °C 1016.1 hPa Calm     98 % 0 mm
03:23 18.8 °C 18.5 °C 1016.1 hPa Calm     98 % 0 mm
03:28 18.8 °C 18.5 °C 1016.1 hPa Calm     98 % 0 mm
03:33 18.8 °C 18.5 °C 1016.1 hPa Calm     98 % 0 mm
03:38 18.8 °C 18.5 °C 1016.1 hPa Calm     98 % 0 mm
03:43 18.8 °C 18.5 °C 1016.1 hPa Calm     98 % 0 mm
03:48 18.7 °C 18.4 °C 1016.1 hPa Calm     98 % 0 mm
03:53 18.7 °C 18.4 °C 1016.1 hPa Calm     98 % 0 mm
03:58 18.7 °C 18.4 °C 1016.1 hPa Calm     98 % 0 mm
04:04 18.7 °C 18.4 °C 1016.1 hPa Calm     98 % 0 mm
04:09 18.7 °C 18.5 °C 1016.1 hPa Calm     99 % 0.25 mm
04:14 18.7 °C 18.5 °C 1015.8 hPa Calm   1.6 km/h 99 % 0.25 mm
04:19 18.8 °C 18.6 °C 1016.1 hPa Calm   1.6 km/h 99 % 0.25 mm
04:23 18.8 °C 18.6 °C 1016.1 hPa Calm   1.6 km/h 99 % 0.25 mm
04:28 18.9 °C 18.7 °C 1016.1 hPa Calm   1.6 km/h 99 % 0.25 mm
04:33 19 °C 18.8 °C 1016.1 hPa Calm   1.6 km/h 99 % 0.25 mm
04:38 19 °C 18.8 °C 1016.1 hPa Calm   1.6 km/h 99 % 0.25 mm
04:43 18.9 °C 18.7 °C 1016.1 hPa Calm   1.6 km/h 99 % 0.25 mm
04:48 18.9 °C 18.7 °C 1016.1 hPa Calm   1.6 km/h 99 % 0.25 mm
04:53 18.9 °C 18.7 °C 1016.1 hPa Calm   1.6 km/h 99 % 0.25 mm
04:58 18.9 °C 18.7 °C 1016.1 hPa Calm     99 % 0.25 mm
05:03 18.8 °C 18.6 °C 1016.1 hPa Calm     99 % 0.25 mm
05:08 18.8 °C 18.6 °C 1016.1 hPa Calm     99 % 0 mm
05:13 18.8 °C 18.6 °C 1016.1 hPa Calm     99 % 0 mm
05:18 18.9 °C 18.7 °C 1016.1 hPa Calm     99 % 0 mm
05:23 19 °C 18.8 °C 1016.1 hPa Calm   1.6 km/h 99 % 0 mm
05:29 19 °C 18.8 °C 1016.1 hPa Calm   1.6 km/h 99 % 0 mm
05:34 19.1 °C 18.9 °C 1016.5 hPa Calm   1.6 km/h 99 % 0 mm
05:39 19.2 °C 19 °C 1016.5 hPa Calm   1.6 km/h 99 % 0 mm
05:44 19.2 °C 19 °C 1016.5 hPa Calm   1.6 km/h 99 % 0 mm
05:49 19.2 °C 19 °C 1016.1 hPa Calm   3.2 km/h 99 % 0 mm
05:54 19.2 °C 19 °C 1016.1 hPa Calm   3.2 km/h 99 % 0 mm
05:59 19.1 °C 18.9 °C 1016.1 hPa Calm   3.2 km/h 99 % 0 mm
06:04 19.1 °C 18.9 °C 1016.1 hPa Calm   1.6 km/h 99 % 0 mm
06:08 19.1 °C 18.9 °C 1016.1 hPa Calm   1.6 km/h 99 % 0 mm
06:13 19.1 °C 18.9 °C 1016.5 hPa Calm   1.6 km/h 99 % 0 mm
06:19 19.1 °C 18.9 °C 1016.5 hPa Calm   1.6 km/h 99 % 0 mm
06:24 19.1 °C 18.9 °C 1016.1 hPa Calm   1.6 km/h 99 % 0 mm
06:29 19.1 °C 18.9 °C 1016.1 hPa Calm     99 % 0 mm
06:34 19.2 °C 19 °C 1016.5 hPa Calm     99 % 0 mm
06:39 19.2 °C 19 °C 1016.5 hPa Calm   1.6 km/h 99 % 0 mm
06:44 19.2 °C 19 °C 1016.5 hPa Calm   1.6 km/h 99 % 0 mm
06:49 19.2 °C 19 °C 1016.5 hPa Calm   1.6 km/h 99 % 0 mm
06:54 19.2 °C 19 °C 1016.8 hPa Calm   1.6 km/h 99 % 0 mm
06:59 19.2 °C 19 °C 1016.8 hPa Calm   1.6 km/h 99 % 0 mm
07:04 19.2 °C 19 °C 1016.8 hPa Calm   1.6 km/h 99 % 0 mm
07:09 19.2 °C 19 °C 1016.8 hPa Calm   1.6 km/h 99 % 0 mm
07:14 19.2 °C 19 °C 1016.8 hPa Calm   1.6 km/h 99 % 0 mm
07:19 19.2 °C 19 °C 1016.8 hPa Calm   1.6 km/h 99 % 0 mm
07:24 19.3 °C 19.1 °C 1016.8 hPa Calm   1.6 km/h 99 % 0 mm
07:29 19.4 °C 19.2 °C 1016.8 hPa Calm   1.6 km/h 99 % 0 mm
07:34 19.5 °C 19.3 °C 1016.8 hPa Calm   1.6 km/h 99 % 0 mm
07:39 19.7 °C 19.5 °C 1017.2 hPa Calm   1.6 km/h 99 % 0 mm
07:44 19.8 °C 19.8 °C 1017.2 hPa Calm   1.6 km/h 100 % 0 mm
07:49 19.9 °C 19.9 °C 1017.2 hPa Calm   1.6 km/h 100 % 0 mm
07:54 20.1 °C 20.1 °C 1017.2 hPa Calm   1.6 km/h 100 % 0 mm
07:59 20.2 °C 20.2 °C 1017.2 hPa Calm   1.6 km/h 100 % 0 mm
08:04 20.2 °C 20.2 °C 1017.2 hPa ENE 1.6 km/h 3.2 km/h 100 % 0 mm
08:09 20.3 °C 20.1 °C 1017.2 hPa Calm   3.2 km/h 99 % 0 mm
08:14 20.4 °C 20.4 °C 1017.2 hPa Calm   3.2 km/h 100 % 0 mm
08:19 20.7 °C 20.7 °C 1017.2 hPa Calm   3.2 km/h 100 % 0 mm
08:24 20.8 °C 20.8 °C 1017.2 hPa Calm   3.2 km/h 100 % 0 mm
08:29 20.9 °C 20.9 °C 1017.2 hPa Calm   3.2 km/h 100 % 0 mm
08:34 21.1 °C 21.1 °C 1017.2 hPa Calm   3.2 km/h 100 % 0 mm
08:39 21.3 °C 21.3 °C 1017.2 hPa Calm   3.2 km/h 100 % 0 mm
08:44 21.4 °C 21.4 °C 1017.2 hPa Calm   3.2 km/h 100 % 0 mm
08:49 21.6 °C 21.4 °C 1017.2 hPa Calm   3.2 km/h 99 % 0 mm
08:54 21.9 °C 21.9 °C 1017.2 hPa Calm   4.8 km/h 100 % 0 mm
08:59 22 °C 21.8 °C 1017.2 hPa Calm   4.8 km/h 99 % 0 mm
09:04 22.3 °C 22.3 °C 1017.2 hPa Calm   4.8 km/h 100 % 0 mm
09:09 22.4 °C 22.2 °C 1017.2 hPa East 1.6 km/h 4.8 km/h 99 % 0 mm
09:14 22.6 °C 22.4 °C 1017.5 hPa Calm   4.8 km/h 99 % 0 mm
09:19 22.7 °C 22.5 °C 1017.5 hPa Calm   6.4 km/h 99 % 0 mm
09:24 22.9 °C 22.7 °C 1017.5 hPa SW 1.6 km/h 6.4 km/h 99 % 0 mm
09:29 23.1 °C 22.9 °C 1017.5 hPa Calm   8 km/h 99 % 0 mm
09:35 23.2 °C 22.9 °C 1017.5 hPa ESE 1.6 km/h 8 km/h 98 % 0 mm
09:40 23.3 °C 23 °C 1017.5 hPa North 1.6 km/h 8 km/h 98 % 0 mm
09:44 23.4 °C 22.9 °C 1017.5 hPa Calm   8 km/h 97 % 0 mm
09:49 23.5 °C 22.8 °C 1017.8 hPa SSW 1.6 km/h 6.4 km/h 96 % 0 mm
09:54 22.7 °C 21 °C 1017.8 hPa SE 9.7 km/h 9.7 km/h 90 % 0 mm
09:59 22.2 °C 21 °C 1017.5 hPa ESE 3.2 km/h 27.4 km/h 93 % 3.56 mm
10:05 22 °C 21 °C 1017.8 hPa Calm   27.4 km/h 94 % 8.89 mm
10:09 22 °C 21.2 °C 1017.5 hPa Calm   27.4 km/h 95 % 10.41 mm
10:14 22.1 °C 21.4 °C 1017.8 hPa Calm   12.9 km/h 96 % 10.41 mm
10:19 22.3 °C 21.6 °C 1017.8 hPa Calm   8 km/h 96 % 10.41 mm
10:25 22.6 °C 22.1 °C 1017.8 hPa Calm   3.2 km/h 97 % 10.41 mm
10:30 22.9 °C 22.4 °C 1017.8 hPa South 1.6 km/h 3.2 km/h 97 % 10.41 mm
10:35 23.1 °C 22.4 °C 1017.8 hPa SSE 1.6 km/h 4.8 km/h 96 % 10.41 mm
10:40 23.4 °C 22.7 °C 1017.5 hPa ESE 4.8 km/h 8 km/h 96 % 10.41 mm
10:45 23.7 °C 22.9 °C 1017.8 hPa SSW 3.2 km/h 8 km/h 95 % 10.41 mm
10:50 24 °C 22.8 °C 1017.8 hPa SE 4.8 km/h 11.3 km/h 93 % 10.41 mm
10:55 24.2 °C 22.6 °C 1017.8 hPa East 4.8 km/h 11.3 km/h 91 % 6.35 mm
11:00 24.7 °C 22.8 °C 1017.8 hPa South 6.4 km/h 11.3 km/h 89 % 1.52 mm
11:05 25.1 °C 22.8 °C 1017.8 hPa SE 6.4 km/h 9.7 km/h 87 % 0 mm
11:10 25.3 °C 22.6 °C 1017.8 hPa SSE 1.6 km/h 12.9 km/h 85 % 0 mm
11:15 25.7 °C 22.6 °C 1017.8 hPa ESE 11.3 km/h 14.5 km/h 83 % 0 mm
11:20 25.9 °C 22.4 °C 1017.8 hPa South 6.4 km/h 14.5 km/h 81 % 0 mm
11:25 26 °C 21.9 °C 1017.8 hPa South 8 km/h 14.5 km/h 78 % 0 mm
11:30 26.1 °C 21.7 °C 1017.8 hPa SSW 9.7 km/h 16.1 km/h 77 % 0 mm
11:35 26.1 °C 21.7 °C 1017.8 hPa SE 6.4 km/h 19.3 km/h 77 % 0 mm
11:40 26.1 °C 22.2 °C 1017.8 hPa SSW 12.9 km/h 19.3 km/h 79 % 0 mm
11:45 26.5 °C 21.7 °C 1017.8 hPa SSW 11.3 km/h 19.3 km/h 75 % 0 mm
11:50 26.6 °C 21.4 °C 1017.8 hPa SE 4.8 km/h 14.5 km/h 73 % 0 mm
11:55 26.6 °C 21.8 °C 1017.8 hPa SSW 29 km/h 29 km/h 75 % 0 mm
12:00 26.6 °C 21.6 °C 1017.8 hPa SSE 11.3 km/h 29 km/h 74 % 0 mm
12:05 26.8 °C 21.6 °C 1017.5 hPa SE 8 km/h 29 km/h 73 % 0 mm
12:06 26.8 °C 22 °C 1017.5 hPa ESE 12.9 km/h 29 km/h 75 % 0 mm
12:11 26.9 °C 21.4 °C 1017.5 hPa ESE 17.7 km/h 25.7 km/h 72 % 0 mm
12:16 27.1 °C 21.8 °C 1017.5 hPa SSE 14.5 km/h 22.5 km/h 73 % 0 mm
12:21 27.2 °C 21.7 °C 1017.5 hPa SE 12.9 km/h 22.5 km/h 72 % 0 mm
12:26 27 °C 22 °C 1017.2 hPa ENE 4.8 km/h 19.3 km/h 74 % 0 mm
12:31 27.2 °C 22.2 °C 1017.2 hPa SSE 6.4 km/h 19.3 km/h 74 % 0 mm
12:36 27.3 °C 22 °C 1017.2 hPa East 6.4 km/h 16.1 km/h 73 % 0 mm
12:41 27.4 °C 21.9 °C 1017.2 hPa ESE 1.6 km/h 12.9 km/h 72 % 0 mm
12:46 27.3 °C 21.6 °C 1017.2 hPa SE 6.4 km/h 12.9 km/h 71 % 0 mm
12:51 26.9 °C 21.6 °C 1017.2 hPa NE 8 km/h 12.9 km/h 73 % 0 mm
12:56 26.3 °C 21.9 °C 1017.2 hPa ESE 11.3 km/h 20.9 km/h 77 % 0 mm
13:01 25.7 °C 22.4 °C 1017.2 hPa SE 9.7 km/h 20.9 km/h 82 % 0 mm
13:06 25.8 °C 22.5 °C 1017.2 hPa ESE 8 km/h 20.9 km/h 82 % 0 mm
13:11 26.1 °C 21.7 °C 1017.2 hPa SE 11.3 km/h 20.9 km/h 77 % 0 mm
13:16 26.7 °C 22.8 °C 1016.8 hPa SSE 9.7 km/h 20.9 km/h 79 % 0 mm
13:21 27.2 °C 22.2 °C 1016.8 hPa ESE 6.4 km/h 20.9 km/h 74 % 0 mm
13:22 27.2 °C 22.2 °C 1016.8 hPa East 8 km/h 20.9 km/h 74 % 0 mm
13:27 27.5 °C 22.2 °C 1016.8 hPa South 14.5 km/h 19.3 km/h 73 % 0 mm
13:32 27.5 °C 21.5 °C 1016.8 hPa SE 16.1 km/h 22.5 km/h 70 % 0 mm
13:37 27.5 °C 21.8 °C 1016.8 hPa East 11.3 km/h 22.5 km/h 71 % 0 mm
13:42 27.6 °C 21.6 °C 1016.8 hPa SE 14.5 km/h 22.5 km/h 70 % 0 mm
13:47 27.7 °C 21.5 °C 1016.8 hPa ESE 12.9 km/h 22.5 km/h 69 % 0 mm
13:52 27.7 °C 21.7 °C 1016.8 hPa SE 12.9 km/h 22.5 km/h 70 % 0 mm
13:57 27.9 °C 22.2 °C 1016.5 hPa SE 4.8 km/h 22.5 km/h 71 % 0 mm
14:02 27.8 °C 21.3 °C 1016.5 hPa East 12.9 km/h 19.3 km/h 68 % 0 mm
14:07 27.7 °C 22 °C 1016.5 hPa ESE 4.8 km/h 19.3 km/h 71 % 0 mm
14:12 27.6 °C 21.9 °C 1016.5 hPa ESE 11.3 km/h 19.3 km/h 71 % 0 mm
14:17 27.4 °C 21.7 °C 1016.5 hPa South 6.4 km/h 19.3 km/h 71 % 0 mm
14:22 27.1 °C 21.8 °C 1016.5 hPa ESE 12.9 km/h 24.1 km/h 73 % 0 mm
14:27 26.6 °C 21.1 °C 1016.5 hPa SE 12.9 km/h 30.6 km/h 72 % 0 mm
14:32 26.5 °C 21 °C 1016.5 hPa SE 12.9 km/h 30.6 km/h 72 % 0 mm
14:37 26 °C 21.7 °C 1016.5 hPa ENE 8 km/h 30.6 km/h 77 % 0 mm
14:42 25.6 °C 21.9 °C 1016.8 hPa ESE 9.7 km/h 30.6 km/h 80 % 0 mm
14:48 25.3 °C 22.2 °C 1016.5 hPa SE 9.7 km/h 24.1 km/h 83 % 0 mm
14:52 25.2 °C 22.3 °C 1016.5 hPa ESE 4.8 km/h 22.5 km/h 84 % 0 mm
14:58 25.9 °C 22.8 °C 1016.5 hPa East 6.4 km/h 22.5 km/h 83 % 0 mm
15:03 26.4 °C 22.5 °C 1016.1 hPa SSE 9.7 km/h 22.5 km/h 79 % 0 mm
15:08 26.5 °C 22.1 °C 1016.1 hPa SE 17.7 km/h 24.1 km/h 77 % 0 mm
15:13 26.9 °C 22.7 °C 1016.1 hPa SSW 9.7 km/h 24.1 km/h 78 % 0 mm
15:18 27.1 °C 22.5 °C 1016.1 hPa East 11.3 km/h 24.1 km/h 76 % 0 mm
15:23 27.1 °C 22.1 °C 1016.1 hPa SE 12.9 km/h 20.9 km/h 74 % 0 mm
15:28 27.2 °C 22.4 °C 1015.8 hPa SE 9.7 km/h 20.9 km/h 75 % 0 mm
15:33 27.4 °C 22.4 °C 1016.1 hPa East 12.9 km/h 20.9 km/h 74 % 0 mm
15:38 27.3 °C 22.3 °C 1015.8 hPa ESE 14.5 km/h 25.7 km/h 74 % 0 mm
15:43 27.3 °C 22.3 °C 1015.8 hPa East 11.3 km/h 25.7 km/h 74 % 0 mm
15:48 27.3 °C 22.3 °C 1015.8 hPa ESE 11.3 km/h 25.7 km/h 74 % 0 mm
15:53 27.3 °C 22.3 °C 1015.8 hPa ESE 6.4 km/h 24.1 km/h 74 % 0 mm
15:58 27.7 °C 22.9 °C 1015.8 hPa SSW 11.3 km/h 22.5 km/h 75 % 0 mm
16:03 27.8 °C 22.5 °C 1015.5 hPa ESE 16.1 km/h 22.5 km/h 73 % 0 mm
16:08 27.8 °C 22.3 °C 1015.5 hPa ESE 9.7 km/h 22.5 km/h 72 % 0 mm
16:13 27.8 °C 21.8 °C 1015.5 hPa SE 17.7 km/h 22.5 km/h 70 % 0 mm
16:18 27.8 °C 21.3 °C 1015.5 hPa SE 14.5 km/h 22.5 km/h 68 % 0 mm
16:23 27.7 °C 21.3 °C 1015.5 hPa South 12.9 km/h 25.7 km/h 68 % 0 mm
16:28 28.1 °C 20.6 °C 1015.5 hPa ESE 16.1 km/h 25.7 km/h 64 % 0 mm
16:33 28.1 °C 20.6 °C 1015.5 hPa SSE 14.5 km/h 25.7 km/h 64 % 0 mm
16:38 28.3 °C 20.6 °C 1015.5 hPa ESE 9.7 km/h 25.7 km/h 63 % 0 mm
16:43 28.6 °C 20.6 °C 1015.5 hPa East 11.3 km/h 24.1 km/h 62 % 0 mm
16:48 28.6 °C 20.6 °C 1015.5 hPa ESE 9.7 km/h 25.7 km/h 62 % 0 mm
16:53 28.6 °C 20.3 °C 1015.5 hPa SE 17.7 km/h 25.7 km/h 61 % 0 mm
16:58 28.6 °C 20.6 °C 1015.5 hPa East 9.7 km/h 30.6 km/h 62 % 0 mm
17:03 28.6 °C 20.3 °C 1015.5 hPa SE 12.9 km/h 30.6 km/h 61 % 0 mm
17:08 28.6 °C 20.3 °C 1015.5 hPa SE 17.7 km/h 30.6 km/h 61 % 0 mm
17:13 28.4 °C 19.9 °C 1015.5 hPa SSE 17.7 km/h 24.1 km/h 60 % 0 mm
17:18 28.4 °C 20.2 °C 1015.5 hPa ESE 17.7 km/h 27.4 km/h 61 % 0 mm
17:23 28.3 °C 20.1 °C 1015.5 hPa SE 11.3 km/h 30.6 km/h 61 % 0 mm
17:24 28.3 °C 19.8 °C 1015.5 hPa SE 19.3 km/h 30.6 km/h 60 % 0 mm
17:29 28.2 °C 20 °C 1015.5 hPa SE 14.5 km/h 30.6 km/h 61 % 0 mm
17:35 28.3 °C 20.1 °C 1015.5 hPa SSE 9.7 km/h 30.6 km/h 61 % 0 mm
17:40 28.3 °C 20.1 °C 1015.5 hPa SE 4.8 km/h 29 km/h 61 % 0 mm
17:45 28.4 °C 20.4 °C 1015.5 hPa ESE 9.7 km/h 29 km/h 62 % 0 mm
17:50 28.2 °C 20.2 °C 1015.5 hPa ESE 17.7 km/h 22.5 km/h 62 % 0 mm
17:55 28.1 °C 20.1 °C 1015.5 hPa SE 17.7 km/h 27.4 km/h 62 % 0 mm
18:00 28 °C 20 °C 1015.5 hPa SE 19.3 km/h 27.4 km/h 62 % 0 mm
18:05 27.9 °C 20.2 °C 1015.5 hPa SSE 11.3 km/h 27.4 km/h 63 % 0 mm
18:10 27.9 °C 20.5 °C 1015.5 hPa South 8 km/h 24.1 km/h 64 % 0 mm
18:15 27.8 °C 20.4 °C 1015.8 hPa ESE 22.5 km/h 22.5 km/h 64 % 0 mm
18:20 27.7 °C 20.3 °C 1015.8 hPa SE 17.7 km/h 24.1 km/h 64 % 0 mm
18:25 27.7 °C 20.3 °C 1015.8 hPa SE 16.1 km/h 24.1 km/h 64 % 0 mm
18:30 27.6 °C 20.2 °C 1015.8 hPa SE 12.9 km/h 24.1 km/h 64 % 0 mm
18:35 27.6 °C 20.4 °C 1015.8 hPa SE 12.9 km/h 24.1 km/h 65 % 0 mm
18:40 27.4 °C 20.2 °C 1015.8 hPa SSE 17.7 km/h 22.5 km/h 65 % 0 mm
18:45 27.3 °C 20.4 °C 1015.8 hPa SE 16.1 km/h 25.7 km/h 66 % 0 mm
18:50 27.2 °C 20.5 °C 1015.8 hPa SE 8 km/h 25.7 km/h 67 % 0 mm
18:55 27.2 °C 21 °C 1016.1 hPa ESE 8 km/h 25.7 km/h 69 % 0 mm
19:00 26.9 °C 21.2 °C 1016.1 hPa SSE 4.8 km/h 19.3 km/h 71 % 0 mm
19:05 26.8 °C 21.3 °C 1016.1 hPa SE 6.4 km/h 19.3 km/h 72 % 0 mm
19:10 26.6 °C 21.4 °C 1015.8 hPa SE 3.2 km/h 14.5 km/h 73 % 0 mm
19:15 26.4 °C 21.2 °C 1016.1 hPa SSE 8 km/h 25.7 km/h 73 % 0 mm
19:20 26.2 °C 21.2 °C 1016.1 hPa East 8 km/h 25.7 km/h 74 % 0 mm
19:25 25.9 °C 21.1 °C 1016.1 hPa SSE 12.9 km/h 25.7 km/h 75 % 0 mm
19:30 25.8 °C 21 °C 1016.1 hPa SSE 4.8 km/h 22.5 km/h 75 % 0 mm
19:35 25.7 °C 21.1 °C 1015.8 hPa ESE 9.7 km/h 22.5 km/h 76 % 0 mm
19:40 25.6 °C 21.3 °C 1016.1 hPa SE 6.4 km/h 19.3 km/h 77 % 0 mm
19:45 25.4 °C 21.1 °C 1016.1 hPa ESE 9.7 km/h 16.1 km/h 77 % 0 mm
19:46 25.4 °C 21.1 °C 1016.1 hPa ENE 6.4 km/h 16.1 km/h 77 % 0 mm
19:51 25.3 °C 21.2 °C 1015.8 hPa ESE 8 km/h 16.1 km/h 78 % 0 mm
19:56 25.1 °C 21.2 °C 1015.8 hPa ESE 9.7 km/h 20.9 km/h 79 % 0 mm
20:01 25.1 °C 21.2 °C 1016.1 hPa ENE 9.7 km/h 20.9 km/h 79 % 0 mm
20:06 24.9 °C 21.2 °C 1016.1 hPa East 3.2 km/h 20.9 km/h 80 % 0 mm
20:11 24.8 °C 21.3 °C 1016.1 hPa East 8 km/h 14.5 km/h 81 % 0 mm
20:16 24.7 °C 21.2 °C 1016.1 hPa SE 4.8 km/h 19.3 km/h 81 % 0 mm
20:21 24.6 °C 21.3 °C 1016.1 hPa ESE 4.8 km/h 19.3 km/h 82 % 0 mm
20:26 24.5 °C 21.2 °C 1016.1 hPa SSE 8 km/h 19.3 km/h 82 % 0 mm
20:31 24.4 °C 21.1 °C 1016.1 hPa SE 6.4 km/h 12.9 km/h 82 % 0 mm
20:36 24.4 °C 21.3 °C 1016.1 hPa ESE 1.6 km/h 12.9 km/h 83 % 0 mm
20:41 24.3 °C 21.2 °C 1016.1 hPa ESE 3.2 km/h 12.9 km/h 83 % 0 mm
20:46 24.3 °C 21.2 °C 1016.5 hPa ESE 4.8 km/h 12.9 km/h 83 % 0 mm
20:51 24.2 °C 21.3 °C 1016.5 hPa ESE 3.2 km/h 11.3 km/h 84 % 0 mm
20:56 24.1 °C 21.2 °C 1016.5 hPa ENE 6.4 km/h 11.3 km/h 84 % 0 mm
21:01 24.1 °C 21.2 °C 1016.5 hPa SE 3.2 km/h 11.3 km/h 84 % 0 mm
21:06 23.9 °C 21 °C 1016.5 hPa SSW 1.6 km/h 11.3 km/h 84 % 0 mm
21:11 23.9 °C 21.2 °C 1016.8 hPa SE 6.4 km/h 11.3 km/h 85 % 0 mm
21:16 23.8 °C 21.3 °C 1016.8 hPa SE 4.8 km/h 11.3 km/h 86 % 0 mm
21:21 23.8 °C 21.3 °C 1016.8 hPa East 4.8 km/h 11.3 km/h 86 % 0 mm
21:26 23.7 °C 21.4 °C 1016.8 hPa SE 8 km/h 14.5 km/h 87 % 0 mm
21:31 23.7 °C 21.4 °C 1016.8 hPa ESE 1.6 km/h 14.5 km/h 87 % 0 mm
21:36 23.6 °C 21.3 °C 1017.2 hPa ESE 6.4 km/h 14.5 km/h 87 % 0 mm
21:41 23.4 °C 21.3 °C 1017.2 hPa ESE 6.4 km/h 9.7 km/h 88 % 0 mm
21:46 23.4 °C 21.5 °C 1017.2 hPa SE 6.4 km/h 11.3 km/h 89 % 0 mm
21:51 23.4 °C 21.5 °C 1017.2 hPa SSE 3.2 km/h 11.3 km/h 89 % 0 mm
21:56 23.4 °C 21.5 °C 1017.2 hPa South 6.4 km/h 14.5 km/h 89 % 0 mm
22:01 23.4 °C 21.5 °C 1017.2 hPa SE 9.7 km/h 14.5 km/h 89 % 0 mm
22:06 23.3 °C 21.6 °C 1017.2 hPa SSE 4.8 km/h 14.5 km/h 90 % 0 mm
22:11 23.3 °C 21.6 °C 1017.2 hPa SE 3.2 km/h 14.5 km/h 90 % 0 mm
22:16 23.2 °C 21.5 °C 1017.2 hPa SE 3.2 km/h 14.5 km/h 90 % 0 mm
22:21 23.2 °C 21.5 °C 1017.2 hPa SE 3.2 km/h 9.7 km/h 90 % 0 mm
22:26 23.1 °C 21.5 °C 1017.2 hPa East 1.6 km/h 9.7 km/h 91 % 0 mm
22:31 23.1 °C 21.5 °C 1017.2 hPa SE 4.8 km/h 9.7 km/h 91 % 0 mm
22:36 23.1 °C 21.5 °C 1017.2 hPa SE 4.8 km/h 9.7 km/h 91 % 0 mm
22:41 23.1 °C 21.5 °C 1017.2 hPa SE 4.8 km/h 9.7 km/h 91 % 0 mm
22:46 23 °C 21.4 °C 1017.2 hPa SE 1.6 km/h 9.7 km/h 91 % 0 mm
22:51 23 °C 21.6 °C 1017.2 hPa SE 3.2 km/h 9.7 km/h 92 % 0 mm
22:56 22.9 °C 21.5 °C 1017.2 hPa SE 1.6 km/h 9.7 km/h 92 % 0 mm
23:01 22.9 °C 21.5 °C 1017.2 hPa South 1.6 km/h 8 km/h 92 % 0 mm
23:03 22.9 °C 21.5 °C 1017.2 hPa SE 3.2 km/h 8 km/h 92 % 0 mm
23:08 22.9 °C 21.5 °C 1017.2 hPa ESE 1.6 km/h 8 km/h 92 % 0 mm
23:13 22.9 °C 21.5 °C 1017.5 hPa ESE 1.6 km/h 8 km/h 92 % 0 mm
23:18 22.9 °C 21.5 °C 1017.5 hPa East 6.4 km/h 8 km/h 92 % 0 mm
23:23 22.9 °C 21.5 °C 1017.5 hPa SSE 3.2 km/h 9.7 km/h 92 % 0 mm
23:28 22.9 °C 21.5 °C 1017.5 hPa SE 4.8 km/h 11.3 km/h 92 % 0 mm
23:33 22.9 °C 21.5 °C 1017.2 hPa South 6.4 km/h 11.3 km/h 92 % 0 mm
23:38 22.9 °C 21.5 °C 1017.2 hPa SE 3.2 km/h 11.3 km/h 92 % 0 mm
23:43 22.9 °C 21.5 °C 1017.2 hPa SSE 4.8 km/h 9.7 km/h 92 % 0 mm
23:48 22.9 °C 21.5 °C 1017.2 hPa SE 3.2 km/h 9.7 km/h 92 % 0 mm
23:53 22.8 °C 21.4 °C 1017.2 hPa South 6.4 km/h 9.7 km/h 92 % 0 mm
23:58 22.8 °C 21.4 °C 1017.2 hPa SSE 3.2 km/h 9.7 km/h 92 % 0 mm
Spring, Texas: Villages of Bridgestone
Compliments of Weather Underground - 3 mb

Script developed by  Jim McMurry - jmcmurry@mwt.net Adapted for the template by  Wim van der Kuil - Leuven-Template.eu

You find our weather info also at:

UK Metoffice

WeatherCloud

Weather Underground

Mid-South Weather Network

AWEKAS

Citizen Weather Observer Program (CWOP)

HAMweather, WeatherForYou, PWS Weather

Equipment we use:

Weather-station
Davis Vantage Vue

Weather-program
Meteohub

Weather-server
Debian 7.9 x86 (Guest)

Provider
DreamHost

Davis Vantage Vue

Meteohub

Debian 7.9 x86 (Guest)

DreamHost